Time;durP1;ratioP1;P1;durP2;ratioP2;P2;SDS_P1;SDS_P2;PMS_P1;PMS_P2;Temp;Humidity;BMP_temperature;BMP_pressure;BME280_temperature;BME280_humidity;BME280_pressure;Samples;Min_cycle;Max_cycle;Signal;HPM_P1;HPM_P2
2022/03/26 00:00:52;;;;;;;5.93;5.73;;;18.70;63.50;;;;;;4975596;28;44031;-80
2022/03/26 00:03:20;;;;;;;5.57;5.37;;;18.70;63.60;;;;;;4956726;28;45015;-81
2022/03/26 00:05:49;;;;;;;5.57;5.37;;;18.60;63.60;;;;;;4974806;28;43944;-80
2022/03/26 00:08:16;;;;;;;5.63;5.43;;;18.60;63.70;;;;;;4974868;28;44070;-79
2022/03/26 00:10:45;;;;;;;5.90;5.63;;;18.60;63.80;;;;;;4975399;28;43994;-80
2022/03/26 00:13:13;;;;;;;6.10;5.80;;;18.60;64.00;;;;;;4975679;28;44282;-80
2022/03/26 00:15:41;;;;;;;5.20;5.00;;;18.60;64.00;;;;;;4974639;28;43953;-78
2022/03/26 00:18:17;;;;;;;5.60;5.40;;;18.70;63.90;;;;;;4974930;28;43981;-78
2022/03/26 00:20:46;;;;;;;5.60;5.40;;;18.90;63.50;;;;;;4962701;28;43995;-80
2022/03/26 00:23:14;;;;;;;5.40;5.20;;;19.10;63.00;;;;;;4961772;28;45118;-80
2022/03/26 00:25:41;;;;;;;5.60;5.40;;;19.20;62.50;;;;;;4962253;28;43954;-80
2022/03/26 00:28:09;;;;;;;5.10;5.00;;;19.20;62.40;;;;;;4947946;28;44073;-78
2022/03/26 00:30:37;;;;;;;5.53;5.33;;;19.10;62.30;;;;;;4961807;28;43975;-80
2022/03/26 00:33:05;;;;;;;5.03;4.93;;;19.10;62.50;;;;;;4962457;28;44053;-80
2022/03/26 00:35:35;;;;;;;5.37;5.17;;;19.00;62.70;;;;;;4962742;28;44028;-78
2022/03/26 00:38:03;;;;;;;5.10;4.90;;;18.90;63.60;;;;;;4975126;28;44099;-78
2022/03/26 00:40:32;;;;;;;4.93;4.73;;;18.80;63.00;;;;;;4956985;28;43604;-79
2022/03/26 00:42:59;;;;;;;5.37;5.17;;;18.80;63.20;;;;;;4974297;28;44110;-78
2022/03/26 00:45:29;;;;;;;5.73;5.50;;;18.70;63.30;;;;;;4974414;28;43898;-78
2022/03/26 00:47:57;;;;;;;5.17;4.97;;;18.70;63.70;;;;;;4974750;28;43898;-78
2022/03/26 00:50:25;;;;;;;6.27;5.97;;;18.70;63.90;;;;;;4975086;28;43973;-80
2022/03/26 00:52:54;;;;;;;5.40;5.03;;;18.80;63.70;;;;;;4971761;28;43938;-80
2022/03/26 00:55:22;;;;;;;5.47;5.27;;;18.90;63.20;;;;;;4971112;28;43902;-79
2022/03/26 00:57:50;;;;;;;5.30;5.10;;;18.90;62.90;;;;;;4971412;28;44076;-82
2022/03/26 01:00:18;;;;;;;5.07;4.87;;;18.90;62.90;;;;;;4971442;28;43910;-82
2022/03/26 01:02:46;;;;;;;5.43;5.23;;;18.90;63.00;;;;;;4970644;28;45080;-80
2022/03/26 01:05:14;;;;;;;5.40;5.10;;;18.80;63.10;;;;;;4953054;28;45920;-82
2022/03/26 01:07:42;;;;;;;5.30;5.10;;;18.70;63.20;;;;;;4970974;28;43929;-78
2022/03/26 01:10:11;;;;;;;5.17;5.07;;;18.70;63.40;;;;;;4971081;28;43814;-79
2022/03/26 01:12:39;;;;;;;5.10;4.90;;;18.70;63.50;;;;;;4952802;28;45448;-80
2022/03/26 01:15:08;;;;;;;4.97;4.77;;;18.60;63.60;;;;;;4971245;28;43985;-81
2022/03/26 01:17:36;;;;;;;5.47;5.17;;;18.60;63.70;;;;;;4953155;28;44008;-79
2022/03/26 01:20:05;;;;;;;5.20;5.00;;;18.60;63.80;;;;;;4971580;28;43827;-81
2022/03/26 01:22:33;;;;;;;5.03;4.83;;;18.60;64.00;;;;;;4971202;28;44522;-80
2022/03/26 01:25:01;;;;;;;5.50;5.30;;;18.60;64.00;;;;;;4970941;28;43425;-79
2022/03/26 01:27:30;;;;;;;5.40;5.20;;;18.80;63.80;;;;;;4970850;28;43342;-79
2022/03/26 01:29:58;;;;;;;5.00;4.80;;;18.90;63.30;;;;;;4953623;28;44280;-79
2022/03/26 01:32:26;;;;;;;4.70;4.60;;;19.10;62.80;;;;;;4952742;28;46618;-79
2022/03/26 01:34:54;;;;;;;5.10;4.90;;;19.20;62.40;;;;;;4970621;28;44003;-79
2022/03/26 01:37:23;;;;;;;5.60;5.40;;;19.20;62.20;;;;;;4970791;28;44360;-79
2022/03/26 01:39:51;;;;;;;4.60;4.50;;;19.10;62.20;;;;;;4970808;28;43872;-80
2022/03/26 01:42:19;;;;;;;4.80;4.70;;;19.00;62.30;;;;;;4952788;28;45331;-79
2022/03/26 01:44:48;;;;;;;5.20;5.00;;;18.90;62.50;;;;;;4970275;28;44427;-79
2022/03/26 01:47:17;;;;;;;4.80;4.70;;;18.90;63.50;;;;;;4970756;28;44075;-78
2022/03/26 01:49:45;;;;;;;4.70;4.60;;;18.80;63.00;;;;;;4953176;28;44011;-78
2022/03/26 01:52:13;;;;;;;4.90;4.70;;;18.70;63.00;;;;;;4952480;28;44221;-80
2022/03/26 01:54:41;;;;;;;5.20;5.10;;;18.70;63.20;;;;;;4969783;28;43298;-79
2022/03/26 01:57:11;;;;;;;4.97;4.77;;;18.70;63.70;;;;;;4952902;28;44016;-79
2022/03/26 01:59:39;;;;;;;5.30;5.10;;;18.70;63.70;;;;;;4970545;28;43913;-79
2022/03/26 02:02:09;;;;;;;5.63;5.43;;;18.90;63.40;;;;;;4952457;28;44762;-79
2022/03/26 02:04:37;;;;;;;5.10;4.90;;;18.90;63.00;;;;;;4952534;28;44414;-79
2022/03/26 02:07:05;;;;;;;5.27;5.07;;;18.90;62.80;;;;;;4969524;28;44016;-82
2022/03/26 02:09:35;;;;;;;5.10;4.90;;;18.90;62.90;;;;;;4970424;28;43975;-80
2022/03/26 02:12:04;;;;;;;4.77;4.67;;;18.80;63.00;;;;;;4952116;28;45417;-79
2022/03/26 02:14:32;;;;;;;4.70;4.57;;;18.70;63.00;;;;;;4952435;28;44757;-80
2022/03/26 02:17:00;;;;;;;5.03;4.83;;;18.70;63.20;;;;;;4968399;28;43953;-80
2022/03/26 02:19:30;;;;;;;4.73;4.63;;;18.60;63.30;;;;;;4967340;28;43941;-79
2022/03/26 02:21:59;;;;;;;4.70;4.60;;;18.60;63.40;;;;;;4968717;28;43768;-79
2022/03/26 02:24:27;;;;;;;4.83;4.60;;;18.60;63.60;;;;;;4950501;28;44797;-79
2022/03/26 02:26:56;;;;;;;4.80;4.67;;;18.50;63.50;;;;;;4951067;28;43387;-79
2022/03/26 02:29:25;;;;;;;5.30;5.00;;;18.50;63.60;;;;;;4969214;28;43624;-79
2022/03/26 02:31:53;;;;;;;5.10;4.90;;;18.50;63.80;;;;;;4950361;28;45378;-78
2022/03/26 02:34:23;;;;;;;4.90;4.80;;;18.70;63.80;;;;;;4968522;28;44052;-80
2022/03/26 02:37:10;;;;;;;4.77;4.60;;;18.80;63.70;;;;;;4968688;28;43823;-80
2022/03/26 02:39:38;;;;;;;4.50;4.40;;;19.00;63.00;;;;;;4969342;28;44023;-80
2022/03/26 02:42:07;;;;;;;4.80;4.70;;;19.20;62.40;;;;;;4968875;28;43942;-78
2022/03/26 02:44:35;;;;;;;5.00;4.80;;;19.20;62.00;;;;;;4951387;28;45037;-79
2022/03/26 02:47:03;;;;;;;5.30;5.10;;;19.20;62.00;;;;;;4950926;28;44023;-79
2022/03/26 02:49:31;;;;;;;4.37;4.27;;;19.10;62.00;;;;;;4969123;28;43961;-80
2022/03/26 02:51:59;;;;;;;4.40;4.30;;;19.00;62.20;;;;;;4950670;28;45639;-78
2022/03/26 02:54:28;;;;;;;4.60;4.43;;;18.90;62.40;;;;;;4968615;28;43599;-78
2022/03/26 02:56:56;;;;;;;4.83;4.73;;;18.80;62.70;;;;;;4950754;28;44030;-78
2022/03/26 02:59:24;;;;;;;4.63;4.53;;;18.80;63.00;;;;;;4951155;28;43917;-79
2022/03/26 03:01:53;;;;;;;4.70;4.60;;;18.70;63.10;;;;;;4968553;28;43748;-80
2022/03/26 03:04:21;;;;;;;5.10;4.90;;;18.70;63.30;;;;;;4950770;28;44663;-80
2022/03/26 03:06:51;;;;;;;4.60;4.50;;;18.70;63.70;;;;;;4968414;28;43965;-79
2022/03/26 03:09:19;;;;;;;4.70;4.53;;;18.70;63.60;;;;;;4951134;28;43887;-79
2022/03/26 03:11:48;;;;;;;4.97;4.77;;;18.90;63.30;;;;;;4950515;28;46664;-78
2022/03/26 03:14:16;;;;;;;5.07;4.87;;;18.90;63.70;;;;;;4968094;28;43888;-81
2022/03/26 03:16:45;;;;;;;4.87;4.67;;;18.90;62.70;;;;;;4967834;28;43350;-79
2022/03/26 03:19:13;;;;;;;4.90;4.70;;;18.80;62.70;;;;;;4969150;28;43812;-79
2022/03/26 03:21:41;;;;;;;4.90;4.70;;;18.80;62.90;;;;;;4967902;28;44137;-80
2022/03/26 03:24:09;;;;;;;4.80;4.60;;;18.70;63.00;;;;;;4949393;28;43980;-79
2022/03/26 03:26:37;;;;;;;4.90;4.70;;;18.70;63.20;;;;;;4950721;28;43792;-80
2022/03/26 03:29:06;;;;;;;4.33;4.17;;;18.60;63.30;;;;;;4951488;28;43896;-81
2022/03/26 03:31:35;;;;;;;4.20;4.10;;;18.60;63.40;;;;;;4968338;28;44161;-80
2022/03/26 03:34:03;;;;;;;4.67;4.47;;;18.60;63.60;;;;;;4950470;28;44917;-80
2022/03/26 03:36:31;;;;;;;4.47;4.37;;;18.50;63.50;;;;;;4950832;28;43805;-80
2022/03/26 03:38:59;;;;;;;5.27;5.07;;;18.50;63.70;;;;;;4951113;28;43962;-80
2022/03/26 03:41:27;;;;;;;5.40;5.10;;;18.50;63.80;;;;;;4968217;28;43914;-80
2022/03/26 03:43:55;;;;;;;4.80;4.70;;;18.70;63.70;;;;;;4968487;28;43386;-80
2022/03/26 03:46:24;;;;;;;4.90;4.60;;;18.80;63.30;;;;;;4968135;28;44022;-79
2022/03/26 03:48:52;;;;;;;4.60;4.50;;;19.10;62.80;;;;;;4968751;28;43840;-79
2022/03/26 03:51:20;;;;;;;4.60;4.50;;;19.20;62.30;;;;;;4950129;28;45563;-78
2022/03/26 03:53:48;;;;;;;5.00;4.80;;;19.20;62.00;;;;;;4968122;28;43924;-79
2022/03/26 03:56:16;;;;;;;4.70;4.60;;;19.10;62.00;;;;;;4950566;28;43907;-78
2022/03/26 03:58:44;;;;;;;4.90;4.70;;;19.00;62.20;;;;;;4968507;28;44141;-79
2022/03/26 04:01:12;;;;;;;4.87;4.67;;;18.90;62.40;;;;;;4968163;28;43928;-79
2022/03/26 04:03:41;;;;;;;4.80;4.60;;;18.80;62.60;;;;;;4950587;28;44687;-79
2022/03/26 04:06:09;;;;;;;4.63;4.47;;;18.80;62.90;;;;;;4968327;28;43986;-79
2022/03/26 04:08:37;;;;;;;5.07;4.87;;;18.70;63.00;;;;;;4950706;28;44062;-79
2022/03/26 04:11:05;;;;;;;4.80;4.60;;;18.70;63.20;;;;;;4950461;28;45484;-80
2022/03/26 04:13:33;;;;;;;4.53;4.33;;;18.60;63.50;;;;;;4968196;28;43952;-79
2022/03/26 04:16:01;;;;;;;4.97;4.77;;;18.70;63.70;;;;;;4967888;28;44187;-79
2022/03/26 04:18:29;;;;;;;4.80;4.60;;;18.80;63.40;;;;;;4950864;28;43952;-79
2022/03/26 04:20:59;;;;;;;4.67;4.57;;;18.90;63.10;;;;;;4967933;28;43923;-80
2022/03/26 04:23:27;;;;;;;4.67;4.57;;;18.90;62.90;;;;;;4967553;28;44028;-80
2022/03/26 04:25:55;;;;;;;4.67;4.53;;;18.80;62.70;;;;;;4967433;28;44009;-81
2022/03/26 04:28:22;;;;;;;4.93;4.80;;;18.80;62.80;;;;;;4969348;28;44040;-80
2022/03/26 04:30:50;;;;;;;4.97;4.77;;;18.70;62.90;;;;;;4971180;28;44410;-80
2022/03/26 04:33:18;;;;;;;4.17;4.07;;;18.70;63.20;;;;;;4970901;28;44172;-81
2022/03/26 04:35:46;;;;;;;4.63;4.43;;;18.60;63.30;;;;;;4971231;28;43796;-80
2022/03/26 04:38:16;;;;;;;4.97;4.77;;;18.60;63.40;;;;;;4971598;28;43910;-80
2022/03/26 04:40:44;;;;;;;4.57;4.47;;;18.50;63.50;;;;;;4971401;28;43577;-80
2022/03/26 04:43:11;;;;;;;4.93;4.63;;;18.50;63.60;;;;;;4970799;28;43966;-80
2022/03/26 04:45:39;;;;;;;4.40;4.30;;;18.50;63.60;;;;;;4953271;28;43990;-80
2022/03/26 04:48:08;;;;;;;5.07;4.87;;;18.50;63.80;;;;;;4954006;28;44029;-80
2022/03/26 04:50:36;;;;;;;4.60;4.50;;;18.50;63.80;;;;;;4971765;28;44007;-80
2022/03/26 04:53:04;;;;;;;4.50;4.40;;;18.70;63.60;;;;;;4971033;28;43992;-79
2022/03/26 04:55:33;;;;;;;4.30;4.20;;;18.90;63.20;;;;;;4971256;28;43994;-80
2022/03/26 04:58:01;;;;;;;4.60;4.50;;;19.10;62.80;;;;;;4971433;28;43954;-80
2022/03/26 05:00:29;;;;;;;4.70;4.60;;;19.10;62.90;;;;;;4971239;28;44958;-80
2022/03/26 05:02:57;;;;;;;4.77;4.57;;;19.10;62.00;;;;;;4953068;28;45018;-80
2022/03/26 05:05:26;;;;;;;4.77;4.57;;;19.10;62.10;;;;;;4953373;28;44094;-80
2022/03/26 05:07:55;;;;;;;4.27;4.17;;;19.00;62.20;;;;;;4953463;28;43682;-80
2022/03/26 05:10:24;;;;;;;4.43;4.33;;;18.90;63.10;;;;;;4953252;28;46665;-79
2022/03/26 05:12:54;;;;;;;4.60;4.40;;;18.80;62.70;;;;;;4953331;28;44698;-80
2022/03/26 05:15:22;;;;;;;4.20;4.10;;;18.70;62.80;;;;;;4971525;28;43895;-79
2022/03/26 05:17:51;;;;;;;4.47;4.37;;;18.70;63.10;;;;;;4971532;28;44049;-80
2022/03/26 05:20:20;;;;;;;4.37;4.27;;;18.60;63.10;;;;;;4951904;28;44973;-79
2022/03/26 05:22:48;;;;;;;4.63;4.43;;;18.60;63.50;;;;;;4970610;28;43915;-79
2022/03/26 05:25:17;;;;;;;4.53;4.43;;;18.70;63.70;;;;;;4971236;28;43964;-80
2022/03/26 05:27:45;;;;;;;4.60;4.40;;;18.80;63.40;;;;;;4971389;28;43367;-80
2022/03/26 05:30:14;;;;;;;4.50;4.27;;;18.90;62.90;;;;;;4971269;28;43938;-79
2022/03/26 05:32:42;;;;;;;5.00;4.80;;;18.90;62.70;;;;;;4952767;28;44834;-80
2022/03/26 05:35:13;;;;;;;4.53;4.40;;;18.80;62.70;;;;;;4970410;28;43992;-78
2022/03/26 05:37:42;;;;;;;4.70;4.47;;;18.80;62.80;;;;;;4952959;28;44003;-78
2022/03/26 05:40:11;;;;;;;5.30;5.00;;;18.70;62.90;;;;;;4952929;28;45456;-80
2022/03/26 05:42:39;;;;;;;4.17;4.07;;;18.60;63.00;;;;;;4971077;28;44017;-80
2022/03/26 05:45:08;;;;;;;4.83;4.63;;;18.60;63.20;;;;;;4971019;28;43987;-79
2022/03/26 05:47:38;;;;;;;4.40;4.30;;;18.50;63.30;;;;;;4971216;28;43998;-80
2022/03/26 05:50:07;;;;;;;4.53;4.33;;;18.50;63.40;;;;;;4953619;28;45922;-79
2022/03/26 05:52:35;;;;;;;4.50;4.30;;;18.50;63.50;;;;;;4958300;28;43358;-80
2022/03/26 05:55:04;;;;;;;4.90;4.70;;;18.50;63.50;;;;;;4958728;28;43893;-82
2022/03/26 05:57:32;;;;;;;5.17;4.87;;;18.50;63.80;;;;;;4970723;28;43984;-81
2022/03/26 06:00:00;;;;;;;5.07;4.87;;;18.50;63.60;;;;;;4952468;28;47082;-80
2022/03/26 06:02:29;;;;;;;4.40;4.20;;;18.70;63.50;;;;;;4951458;28;45797;-80
2022/03/26 06:05:03;;;;;;;4.10;4.00;;;18.90;63.00;;;;;;4951309;28;44059;-79
2022/03/26 06:07:32;;;;;;;4.10;4.00;;;19.10;62.50;;;;;;4951497;28;43935;-78
2022/03/26 06:10:01;;;;;;;4.50;4.40;;;19.20;62.00;;;;;;4950422;28;45552;-75
2022/03/26 06:12:35;;;;;;;4.63;4.47;;;19.10;61.80;;;;;;4950963;28;44435;-78
2022/03/26 06:15:05;;;;;;;4.60;4.50;;;19.10;62.00;;;;;;4951204;28;43906;-77
2022/03/26 06:17:52;;;;;;;4.90;4.70;;;18.90;62.00;;;;;;4951339;28;44039;-77
2022/03/26 06:20:22;;;;;;;4.57;4.47;;;18.80;62.40;;;;;;4950994;28;45599;-77
2022/03/26 06:22:51;;;;;;;4.57;4.37;;;18.80;62.60;;;;;;4950468;28;44616;-76
2022/03/26 06:25:25;;;;;;;4.33;4.10;;;18.70;62.80;;;;;;4951444;28;43913;-79
2022/03/26 06:27:54;;;;;;;4.20;4.10;;;18.70;63.80;;;;;;4932815;28;43976;-80
2022/03/26 06:30:22;;;;;;;4.83;4.63;;;18.60;63.10;;;;;;4958291;28;43920;-78
2022/03/26 06:32:52;;;;;;;4.10;4.00;;;18.60;64.20;;;;;;4957264;28;43946;-79
2022/03/26 06:35:22;;;;;;;4.90;4.60;;;18.70;63.50;;;;;;4969738;28;43950;-77
2022/03/26 06:37:49;;;;;;;4.03;3.93;;;18.80;63.20;;;;;;4951658;28;43916;-78
2022/03/26 06:40:18;;;;;;;4.70;4.50;;;18.80;62.70;;;;;;4968741;28;44049;-80
2022/03/26 06:42:46;;;;;;;4.60;4.40;;;18.80;62.50;;;;;;4950620;28;44469;-76
2022/03/26 06:45:17;;;;;;;5.10;4.90;;;18.80;62.60;;;;;;4968117;28;44025;-76
2022/03/26 06:47:45;;;;;;;4.10;4.00;;;18.70;62.70;;;;;;4969245;28;43513;-79
2022/03/26 06:50:13;;;;;;;4.07;3.97;;;18.60;62.90;;;;;;4969345;28;43883;-78
2022/03/26 06:52:42;;;;;;;3.80;3.70;;;18.60;63.10;;;;;;4969985;28;43338;-77
2022/03/26 06:55:10;;;;;;;4.23;4.13;;;18.50;63.20;;;;;;4969249;28;43874;-78
2022/03/26 06:57:38;;;;;;;4.17;4.07;;;18.50;63.30;;;;;;4951947;28;44186;-78
2022/03/26 07:00:09;;;;;;;4.43;4.33;;;18.50;63.40;;;;;;4969868;28;43589;-79
2022/03/26 07:02:37;;;;;;;4.40;4.23;;;18.40;63.40;;;;;;4970605;28;43781;-81
2022/03/26 07:05:06;;;;;;;4.60;4.40;;;18.40;63.60;;;;;;4952871;28;44028;-83
2022/03/26 07:07:34;;;;;;;4.27;4.17;;;18.50;63.80;;;;;;4970490;28;43950;-80
2022/03/26 07:10:04;;;;;;;4.23;4.03;;;18.60;63.50;;;;;;4969252;28;44404;-80
2022/03/26 07:12:32;;;;;;;4.07;3.97;;;18.80;63.20;;;;;;4952370;28;44766;-81
2022/03/26 07:15:00;;;;;;;4.20;4.10;;;19.00;62.50;;;;;;4951662;28;43919;-80
2022/03/26 07:17:28;;;;;;;5.20;4.83;;;19.10;62.00;;;;;;4969821;28;43369;-81
2022/03/26 07:19:56;;;;;;;5.27;4.83;;;19.10;61.70;;;;;;4968996;28;44025;-81
2022/03/26 07:22:30;;;;;;;4.70;4.50;;;19.00;61.00;;;;;;4969039;28;44001;-80
2022/03/26 07:24:58;;;;;;;4.90;4.70;;;18.90;60.90;;;;;;4951478;28;43398;-80
2022/03/26 07:27:29;;;;;;;4.50;4.30;;;18.80;61.60;;;;;;4970008;28;43357;-80
2022/03/26 07:29:57;;;;;;;4.53;4.33;;;18.70;61.90;;;;;;4969150;28;43707;-82
2022/03/26 07:32:25;;;;;;;4.63;4.43;;;18.60;62.10;;;;;;4951461;28;45863;-80
2022/03/26 07:34:54;;;;;;;4.47;4.27;;;18.60;62.40;;;;;;4969008;28;43457;-78
2022/03/26 07:37:22;;;;;;;4.33;4.17;;;18.50;62.60;;;;;;4969351;28;43935;-81
2022/03/26 07:39:50;;;;;;;4.63;4.50;;;18.50;63.20;;;;;;4951279;28;45518;-79
2022/03/26 07:42:18;;;;;;;4.73;4.53;;;18.50;63.30;;;;;;4950826;28;44722;-80
2022/03/26 07:44:47;;;;;;;5.27;5.00;;;18.70;63.20;;;;;;4951757;28;44022;-80
2022/03/26 07:47:15;;;;;;;4.63;4.43;;;18.90;62.70;;;;;;4969378;28;43935;-81
2022/03/26 07:49:43;;;;;;;4.13;4.03;;;19.00;62.20;;;;;;4968968;28;43976;-80
2022/03/26 07:52:11;;;;;;;4.20;4.00;;;19.00;62.10;;;;;;4968759;28;43999;-81
2022/03/26 07:54:39;;;;;;;5.00;4.80;;;18.90;61.70;;;;;;4950634;28;44038;-80
2022/03/26 07:57:08;;;;;;;4.60;4.50;;;18.90;61.90;;;;;;4950278;28;43888;-80
2022/03/26 07:59:37;;;;;;;4.30;4.20;;;18.80;62.10;;;;;;4949696;28;45538;-79
2022/03/26 08:02:09;;;;;;;4.57;4.47;;;18.70;62.30;;;;;;4950792;28;44006;-79
2022/03/26 08:04:38;;;;;;;4.67;4.47;;;18.60;62.50;;;;;;4953906;28;44022;-78
2022/03/26 08:07:07;;;;;;;5.13;4.93;;;18.60;62.80;;;;;;4955026;28;44247;-79
2022/03/26 08:09:35;;;;;;;4.83;4.63;;;18.50;62.90;;;;;;4953534;28;45123;-79
2022/03/26 08:12:04;;;;;;;5.00;4.80;;;18.50;62.90;;;;;;4953922;28;44475;-79
2022/03/26 08:14:34;;;;;;;4.90;4.50;;;18.50;63.40;;;;;;4972334;28;43939;-78
2022/03/26 08:17:03;;;;;;;5.47;5.27;;;18.50;63.40;;;;;;4954544;28;44031;-79
2022/03/26 08:19:35;;;;;;;4.73;4.53;;;18.70;63.10;;;;;;4971368;28;43860;-79
2022/03/26 08:22:03;;;;;;;4.87;4.67;;;18.80;62.80;;;;;;4958226;28;44102;-79
2022/03/26 08:24:32;;;;;;;4.93;4.73;;;18.80;62.40;;;;;;4941802;28;44075;-80
2022/03/26 08:27:00;;;;;;;4.60;4.50;;;18.70;62.40;;;;;;4942123;28;44073;-79
2022/03/26 08:29:28;;;;;;;4.83;4.70;;;18.70;62.60;;;;;;4941361;28;45205;-80
2022/03/26 08:31:56;;;;;;;4.40;4.20;;;18.60;62.70;;;;;;4942502;28;44388;-80
2022/03/26 08:34:24;;;;;;;4.60;4.40;;;18.50;62.90;;;;;;4959166;28;43914;-80
2022/03/26 08:36:54;;;;;;;4.17;4.07;;;18.50;63.10;;;;;;4958769;28;43489;-79
2022/03/26 08:39:22;;;;;;;4.80;4.60;;;18.50;63.20;;;;;;4959192;28;44011;-79
2022/03/26 08:41:50;;;;;;;4.23;4.10;;;18.40;63.30;;;;;;4952788;28;44211;-79
2022/03/26 08:44:18;;;;;;;4.90;4.70;;;18.40;63.40;;;;;;4970948;28;43394;-78
2022/03/26 08:46:46;;;;;;;4.93;4.73;;;18.40;63.50;;;;;;4953219;28;44251;-79
2022/03/26 08:49:14;;;;;;;4.90;4.70;;;18.40;63.80;;;;;;4952979;28;45768;-78
2022/03/26 08:51:42;;;;;;;4.73;4.53;;;18.40;63.60;;;;;;4971032;28;43365;-80
2022/03/26 08:54:14;;;;;;;4.17;4.07;;;18.60;63.40;;;;;;4953877;28;43991;-80
2022/03/26 08:56:42;;;;;;;4.43;4.33;;;18.80;63.00;;;;;;4954048;28;44026;-80
2022/03/26 08:59:10;;;;;;;4.60;4.30;;;18.90;62.40;;;;;;4970484;28;44104;-80
2022/03/26 09:01:38;;;;;;;4.40;4.30;;;19.10;62.00;;;;;;4953926;28;45713;-79
2022/03/26 09:04:09;;;;;;;4.90;4.70;;;19.10;61.80;;;;;;4971613;28;43445;-81
2022/03/26 09:06:37;;;;;;;4.30;4.20;;;19.00;61.70;;;;;;4972073;28;43438;-81
2022/03/26 09:09:05;;;;;;;4.70;4.50;;;18.90;61.80;;;;;;4970200;28;43784;-79
2022/03/26 09:11:36;;;;;;;4.77;4.47;;;18.80;62.10;;;;;;4953265;28;44826;-79
2022/03/26 09:14:04;;;;;;;4.40;4.20;;;18.70;62.40;;;;;;4952182;28;43899;-80
2022/03/26 09:16:32;;;;;;;4.50;4.30;;;18.60;62.60;;;;;;4953930;28;43422;-81
2022/03/26 09:19:00;;;;;;;4.33;4.10;;;18.60;62.80;;;;;;4952269;28;46874;-79
2022/03/26 09:21:28;;;;;;;4.60;4.40;;;18.50;63.00;;;;;;4971077;28;44042;-81
2022/03/26 09:23:56;;;;;;;4.67;4.47;;;18.50;63.40;;;;;;4970405;28;43350;-81
2022/03/26 09:26:24;;;;;;;4.57;4.47;;;18.60;63.50;;;;;;4971190;28;44042;-79
2022/03/26 09:28:53;;;;;;;4.40;4.10;;;18.70;63.20;;;;;;4952964;28;46054;-79
2022/03/26 09:31:21;;;;;;;4.77;4.50;;;18.70;62.80;;;;;;4970732;28;43889;-81
2022/03/26 09:33:50;;;;;;;4.30;4.10;;;18.70;62.50;;;;;;4952956;28;43922;-80
2022/03/26 09:36:18;;;;;;;3.80;3.70;;;18.70;62.60;;;;;;4953452;28;43547;-82
2022/03/26 09:38:46;;;;;;;4.53;4.33;;;18.60;62.80;;;;;;4970260;28;43944;-80
2022/03/26 09:41:14;;;;;;;4.50;4.40;;;18.60;63.00;;;;;;4952573;28;44702;-80
2022/03/26 09:43:42;;;;;;;4.23;4.13;;;18.50;63.10;;;;;;4971417;28;43952;-80
2022/03/26 09:46:11;;;;;;;4.03;3.93;;;18.50;63.30;;;;;;4971118;28;43889;-79
2022/03/26 09:48:39;;;;;;;4.20;4.10;;;18.40;63.40;;;;;;4969627;28;44274;-80
2022/03/26 09:51:07;;;;;;;4.33;4.23;;;18.40;63.50;;;;;;4952915;28;43881;-79
2022/03/26 09:53:35;;;;;;;4.60;4.37;;;18.40;63.70;;;;;;4970796;28;43413;-82
2022/03/26 09:56:03;;;;;;;4.20;4.10;;;18.40;64.40;;;;;;4971159;28;44041;-80
2022/03/26 09:58:31;;;;;;;4.30;4.20;;;18.40;63.80;;;;;;4952619;28;46099;-81
2022/03/26 10:01:00;;;;;;;4.40;4.27;;;18.40;63.90;;;;;;4970407;28;44072;-80
2022/03/26 10:03:29;;;;;;;4.20;4.10;;;18.50;63.70;;;;;;4970328;28;44017;-80
2022/03/26 10:06:02;;;;;;;4.20;4.03;;;18.70;63.40;;;;;;4970416;28;43901;-80
2022/03/26 10:08:31;;;;;;;4.23;4.00;;;18.90;63.00;;;;;;4970128;28;44117;-81
2022/03/26 10:10:59;;;;;;;4.43;4.23;;;19.10;62.70;;;;;;4970214;28;43833;-79
2022/03/26 10:13:37;;;;;;;4.53;4.33;;;19.30;62.20;;;;;;4952654;28;44268;-79
2022/03/26 10:16:07;;;;;;;4.13;4.03;;;19.40;61.70;;;;;;4970458;28;43465;-78
2022/03/26 10:18:37;;;;;;;4.00;3.90;;;19.60;61.20;;;;;;4952319;28;45752;-79
2022/03/26 10:21:07;;;;;;;4.13;4.03;;;19.70;60.70;;;;;;4952455;28;43459;-78
2022/03/26 10:23:35;;;;;;;4.97;4.13;;;19.80;60.40;;;;;;4970030;28;43891;-81
2022/03/26 10:26:07;;;;;;;4.30;4.10;;;19.90;59.50;;;;;;4970556;28;44023;-79
2022/03/26 10:28:35;;;;;;;4.13;4.03;;;20.00;59.40;;;;;;4939196;28;45177;-79
2022/03/26 10:34:08;;;;;;;3.83;3.73;;;19.80;59.80;;;;;;4947363;28;43974;-80
2022/03/26 10:36:38;;;;;;;4.13;4.03;;;19.60;60.00;;;;;;4951840;28;44038;-81
2022/03/26 10:39:06;;;;;;;3.80;3.70;;;19.50;60.60;;;;;;4968722;28;44367;-81
2022/03/26 10:41:35;;;;;;;4.27;4.17;;;19.30;61.00;;;;;;4968873;28;44101;-79
2022/03/26 10:44:08;;;;;;;4.33;4.13;;;19.20;61.30;;;;;;4968447;28;43996;-79
2022/03/26 10:46:47;;;;;;;4.50;4.30;;;19.00;62.20;;;;;;4951770;28;44030;-78
2022/03/26 10:49:25;;;;;;;5.40;4.43;;;19.00;62.50;;;;;;4940445;28;45784;-79
2022/03/26 10:51:53;;;;;;;5.00;4.60;;;19.10;62.30;;;;;;4968990;28;44058;-80
2022/03/26 10:54:28;;;;;;;4.90;4.53;;;19.20;61.70;;;;;;4951469;28;44125;-80
2022/03/26 10:56:57;;;;;;;4.80;4.50;;;19.30;61.30;;;;;;4969487;28;43871;-80
2022/03/26 10:59:25;;;;;;;4.53;4.33;;;19.30;61.40;;;;;;4950351;28;46000;-80
2022/03/26 11:01:53;;;;;;;5.07;4.77;;;19.20;60.80;;;;;;4968531;28;43965;-79
2022/03/26 11:04:23;;;;;;;4.77;4.47;;;19.20;61.20;;;;;;4968663;28;44092;-78
2022/03/26 11:06:51;;;;;;;4.53;4.33;;;19.10;61.60;;;;;;4951125;28;43787;-78
2022/03/26 11:09:19;;;;;;;4.50;4.17;;;18.90;61.80;;;;;;4950153;28;44194;-79
2022/03/26 11:11:48;;;;;;;4.53;4.33;;;18.90;62.20;;;;;;4968412;28;44071;-80
2022/03/26 11:14:18;;;;;;;5.23;4.63;;;18.80;62.40;;;;;;4968505;28;43875;-79
2022/03/26 11:16:56;;;;;;;4.83;4.63;;;18.80;62.70;;;;;;4969011;28;43937;-80
2022/03/26 11:19:31;;;;;;;5.23;4.87;;;18.70;62.70;;;;;;4968358;28;44030;-80
2022/03/26 11:22:16;;;;;;;5.50;4.77;;;18.70;62.90;;;;;;4942605;28;44791;-80
2022/03/26 11:25:04;;;;;;;5.23;4.73;;;18.80;63.20;;;;;;4969641;28;43401;-80
2022/03/26 11:27:50;;;;;;;5.63;5.10;;;18.90;62.70;;;;;;4959945;28;43915;-82
2022/03/26 11:30:20;;;;;;;8.60;4.83;;;19.10;62.40;;;;;;4958096;28;43962;-79
2022/03/26 11:32:52;;;;;;;5.50;5.10;;;19.10;62.10;;;;;;4969933;28;44362;-81
2022/03/26 11:35:22;;;;;;;8.50;4.83;;;19.10;62.00;;;;;;4950653;28;44055;-81
2022/03/26 11:37:54;;;;;;;6.03;5.37;;;19.00;61.60;;;;;;4950103;28;44302;-80
2022/03/26 11:40:41;;;;;;;6.10;5.60;;;18.90;61.40;;;;;;4967905;28;44164;-79
2022/03/26 11:43:08;;;;;;;9.90;5.60;;;18.80;60.80;;;;;;4967760;28;44211;-82
2022/03/26 11:51:23;;;;;;;6.53;5.60;;;18.70;61.20;;;;;;4950112;28;45722;-80
2022/03/26 11:53:57;;;;;;;6.17;5.57;;;18.60;62.80;;;;;;4950177;28;44683;-81
2022/03/26 11:56:26;;;;;;;5.73;5.23;;;18.70;63.20;;;;;;4950747;28;43991;-82
2022/03/26 11:59:09;;;;;;;6.43;5.00;;;18.80;62.90;;;;;;4968622;28;43930;-80
2022/03/26 12:01:37;;;;;;;6.47;5.60;;;18.90;62.50;;;;;;4944131;28;45763;-79
2022/03/26 12:04:09;;;;;;;5.70;5.07;;;19.00;62.40;;;;;;4967704;28;44079;-80
2022/03/26 12:06:47;;;;;;;5.70;5.27;;;19.00;61.90;;;;;;4967903;28;44231;-82
2022/03/26 12:09:29;;;;;;;5.30;4.90;;;19.00;62.10;;;;;;4967638;28;43980;-79
2022/03/26 12:12:15;;;;;;;5.50;5.00;;;18.90;62.20;;;;;;4949484;28;46804;-79
2022/03/26 12:15:20;;;;;;;5.60;5.20;;;18.80;62.20;;;;;;4957615;28;43768;-80
2022/03/26 12:17:49;;;;;;;5.93;5.33;;;18.80;62.30;;;;;;4967593;28;43946;-82
2022/03/26 12:20:25;;;;;;;5.30;5.10;;;18.70;62.60;;;;;;4968154;28;43946;-80
2022/03/26 12:23:03;;;;;;;5.50;5.10;;;18.70;62.90;;;;;;4956765;28;43975;-81
2022/03/26 12:25:46;;;;;;;5.27;4.90;;;18.70;63.10;;;;;;4972048;28;43966;-79
2022/03/26 12:28:16;;;;;;;5.80;5.23;;;18.60;63.50;;;;;;4967558;28;43998;-80
2022/03/26 12:30:47;;;;;;;5.63;5.33;;;18.70;63.60;;;;;;4967343;28;44088;-80
2022/03/26 12:33:16;;;;;;;5.00;4.70;;;18.80;63.30;;;;;;4967513;28;43844;-79
2022/03/26 12:35:47;;;;;;;5.40;5.10;;;18.90;62.80;;;;;;4967284;28;43986;-80
2022/03/26 12:38:17;;;;;;;6.00;5.57;;;19.10;62.50;;;;;;4950064;28;43434;-79
2022/03/26 12:40:52;;;;;;;5.30;4.90;;;19.10;62.30;;;;;;4967500;28;43939;-79
2022/03/26 12:43:21;;;;;;;5.00;4.60;;;19.10;62.00;;;;;;4936749;28;46877;-79
2022/03/26 12:45:49;;;;;;;4.80;4.60;;;19.00;62.20;;;;;;4966875;28;43978;-79
2022/03/26 12:48:18;;;;;;;5.57;5.07;;;19.00;62.40;;;;;;4967211;28;43349;-79
2022/03/26 12:50:47;;;;;;;4.90;4.70;;;18.90;62.60;;;;;;4970589;28;43998;-79
2022/03/26 12:53:17;;;;;;;4.70;4.50;;;18.80;62.70;;;;;;4970626;28;43890;-81
2022/03/26 12:55:55;;;;;;;4.70;4.40;;;18.80;62.90;;;;;;4970354;28;44009;-81
2022/03/26 13:01:09;;;;;;;4.57;4.40;;;18.70;63.20;;;;;;4971020;28;43947;-80
2022/03/26 13:03:38;;;;;;;5.10;4.90;;;18.70;63.50;;;;;;4970689;28;44724;-79
2022/03/26 13:06:07;;;;;;;4.80;4.60;;;18.70;63.60;;;;;;4970220;28;44018;-79
2022/03/26 13:08:42;;;;;;;5.23;4.83;;;18.80;63.30;;;;;;4952801;28;43975;-79
2022/03/26 13:11:11;;;;;;;5.07;4.77;;;18.90;63.00;;;;;;4953131;28;43975;-79